Terminal Aerodrome Forecast
Issued by NWS

Home | Current Version | Previous Version | Text Only | Print | Product List | Glossary On
Versions: 1 2 3 4 5 6 7 8 9 10 11 12 13 14 15 16 17
000
FTUS46 KPDT 010500
TAFPSC
TAF
KPSC 010525Z 0106/0206 28007KT P6SM SKC
     FM011000 21004KT P6SM SKC
     FM011900 22010KT P6SM SCT250=

USA.gov is the U.S. government's official web portal to all federal, state and local government web resources and services.